Terminal Aerodrome Forecast
Issued by NWS Grand Forks, ND

Home | Current Version | Previous Version | Graphics & Text | Print | Product List | Glossary On
Versions: 1 2 3 4 5 6 7 8 9 10 11 12 13 14 15 16 17 18 19 20 21
000
FTUS43 KFGF 080522
TAFGFK
TAF
KGFK 080522Z 0806/0906 32008KT P6SM SCT090
     FM081100 31007KT P6SM BKN030
     FM081700 29014KT P6SM BKN035
     FM082000 32018G28KT 6SM BLSN BKN040=

USA.gov is the U.S. government's official web portal to all federal, state and local government web resources and services.